sensor_id;sensor_type;location;lat;lon;timestamp;temperature;humidity
46490;DHT22;32204;49.160;8.580;2023-11-19T00:01:08;10.20;99.90
46490;DHT22;32204;49.160;8.580;2023-11-19T00:03:34;10.20;99.90
46490;DHT22;32204;49.160;8.580;2023-11-19T00:06:00;10.20;99.90
46490;DHT22;32204;49.160;8.580;2023-11-19T00:08:26;10.20;99.90
46490;DHT22;32204;49.160;8.580;2023-11-19T00:10:55;10.20;99.90
46490;DHT22;32204;49.160;8.580;2023-11-19T00:13:21;10.20;99.90
46490;DHT22;32204;49.160;8.580;2023-11-19T00:15:46;10.30;99.90
46490;DHT22;32204;49.160;8.580;2023-11-19T00:18:12;10.30;99.90
46490;DHT22;32204;49.160;8.580;2023-11-19T00:20:39;10.30;99.90
46490;DHT22;32204;49.160;8.580;2023-11-19T00:23:05;10.30;99.90
46490;DHT22;32204;49.160;8.580;2023-11-19T00:25:31;10.30;99.90
46490;DHT22;32204;49.160;8.580;2023-11-19T00:27:56;10.40;99.90
46490;DHT22;32204;49.160;8.580;2023-11-19T00:30:22;10.40;99.90
46490;DHT22;32204;49.160;8.580;2023-11-19T00:32:48;10.40;99.90
46490;DHT22;32204;49.160;8.580;2023-11-19T00:35:13;10.40;99.90
46490;DHT22;32204;49.160;8.580;2023-11-19T00:37:42;10.40;99.90
46490;DHT22;32204;49.160;8.580;2023-11-19T00:40:15;10.50;99.90
46490;DHT22;32204;49.160;8.580;2023-11-19T00:42:42;10.50;99.90
46490;DHT22;32204;49.160;8.580;2023-11-19T00:45:08;10.50;99.90
46490;DHT22;32204;49.160;8.580;2023-11-19T00:47:35;10.50;99.90
46490;DHT22;32204;49.160;8.580;2023-11-19T00:50:02;10.60;99.90
46490;DHT22;32204;49.160;8.580;2023-11-19T00:52:27;10.60;99.90
46490;DHT22;32204;49.160;8.580;2023-11-19T00:54:53;10.60;99.90
46490;DHT22;32204;49.160;8.580;2023-11-19T00:57:19;10.60;99.90
46490;DHT22;32204;49.160;8.580;2023-11-19T00:59:44;10.60;99.90
46490;DHT22;32204;49.160;8.580;2023-11-19T01:02:10;10.60;99.90
46490;DHT22;32204;49.160;8.580;2023-11-19T01:04:36;10.60;99.90
46490;DHT22;32204;49.160;8.580;2023-11-19T01:07:03;10.60;99.90
46490;DHT22;32204;49.160;8.580;2023-11-19T01:09:32;10.70;99.90
46490;DHT22;32204;49.160;8.580;2023-11-19T01:12:02;10.70;99.90
46490;DHT22;32204;49.160;8.580;2023-11-19T01:14:28;10.70;99.90
46490;DHT22;32204;49.160;8.580;2023-11-19T01:16:54;10.70;99.90
46490;DHT22;32204;49.160;8.580;2023-11-19T01:19:23;10.70;99.90
46490;DHT22;32204;49.160;8.580;2023-11-19T01:21:50;10.70;99.90
46490;DHT22;32204;49.160;8.580;2023-11-19T01:24:16;10.70;99.90
46490;DHT22;32204;49.160;8.580;2023-11-19T01:26:43;10.70;99.90
46490;DHT22;32204;49.160;8.580;2023-11-19T01:29:11;10.70;99.90
46490;DHT22;32204;49.160;8.580;2023-11-19T01:31:40;10.80;99.90
46490;DHT22;32204;49.160;8.580;2023-11-19T01:34:05;10.80;99.90
46490;DHT22;32204;49.160;8.580;2023-11-19T01:36:31;10.80;99.90
46490;DHT22;32204;49.160;8.580;2023-11-19T01:38:57;10.80;99.90
46490;DHT22;32204;49.160;8.580;2023-11-19T01:41:22;10.90;99.90
46490;DHT22;32204;49.160;8.580;2023-11-19T01:43:48;10.90;99.90
46490;DHT22;32204;49.160;8.580;2023-11-19T01:46:13;10.90;99.90
46490;DHT22;32204;49.160;8.580;2023-11-19T01:48:45;10.90;99.90
46490;DHT22;32204;49.160;8.580;2023-11-19T01:51:12;10.90;99.90
46490;DHT22;32204;49.160;8.580;2023-11-19T01:53:39;10.90;99.90
46490;DHT22;32204;49.160;8.580;2023-11-19T01:56:08;11.00;99.90
46490;DHT22;32204;49.160;8.580;2023-11-19T01:58:35;10.90;99.90
46490;DHT22;32204;49.160;8.580;2023-11-19T02:01:01;11.00;99.90
46490;DHT22;32204;49.160;8.580;2023-11-19T02:03:31;11.00;99.90
46490;DHT22;32204;49.160;8.580;2023-11-19T02:05:56;11.00;99.90
46490;DHT22;32204;49.160;8.580;2023-11-19T02:08:23;11.00;99.90
46490;DHT22;32204;49.160;8.580;2023-11-19T02:10:48;11.00;99.90
46490;DHT22;32204;49.160;8.580;2023-11-19T02:13:14;11.10;99.90
46490;DHT22;32204;49.160;8.580;2023-11-19T02:15:41;11.10;99.90
46490;DHT22;32204;49.160;8.580;2023-11-19T02:18:20;11.00;99.90
46490;DHT22;32204;49.160;8.580;2023-11-19T02:20:48;11.10;99.90
46490;DHT22;32204;49.160;8.580;2023-11-19T02:23:13;11.10;99.90
46490;DHT22;32204;49.160;8.580;2023-11-19T02:25:40;11.10;99.90
46490;DHT22;32204;49.160;8.580;2023-11-19T02:28:07;11.10;99.90
46490;DHT22;32204;49.160;8.580;2023-11-19T02:30:33;11.10;99.90
46490;DHT22;32204;49.160;8.580;2023-11-19T02:32:59;11.10;99.90
46490;DHT22;32204;49.160;8.580;2023-11-19T02:35:28;11.10;99.90
46490;DHT22;32204;49.160;8.580;2023-11-19T02:37:57;11.10;99.90
46490;DHT22;32204;49.160;8.580;2023-11-19T02:40:23;11.10;99.90
46490;DHT22;32204;49.160;8.580;2023-11-19T02:42:53;11.20;99.90
46490;DHT22;32204;49.160;8.580;2023-11-19T02:45:19;11.20;99.90
46490;DHT22;32204;49.160;8.580;2023-11-19T02:47:45;11.20;99.90
46490;DHT22;32204;49.160;8.580;2023-11-19T02:50:11;11.20;99.90
46490;DHT22;32204;49.160;8.580;2023-11-19T02:52:41;11.20;99.90
46490;DHT22;32204;49.160;8.580;2023-11-19T02:55:08;11.30;99.90
46490;DHT22;32204;49.160;8.580;2023-11-19T02:57:41;11.30;99.90
46490;DHT22;32204;49.160;8.580;2023-11-19T03:00:15;11.30;99.90
46490;DHT22;32204;49.160;8.580;2023-11-19T03:02:41;11.30;99.90
46490;DHT22;32204;49.160;8.580;2023-11-19T03:05:14;11.30;99.90
46490;DHT22;32204;49.160;8.580;2023-11-19T03:07:43;11.30;99.90
46490;DHT22;32204;49.160;8.580;2023-11-19T03:10:10;11.30;99.90
46490;DHT22;32204;49.160;8.580;2023-11-19T03:12:41;11.30;99.90
46490;DHT22;32204;49.160;8.580;2023-11-19T03:15:08;11.30;99.90
46490;DHT22;32204;49.160;8.580;2023-11-19T03:17:36;11.30;99.90
46490;DHT22;32204;49.160;8.580;2023-11-19T03:20:04;11.30;99.90
46490;DHT22;32204;49.160;8.580;2023-11-19T03:22:32;11.30;99.90
46490;DHT22;32204;49.160;8.580;2023-11-19T03:24:59;11.30;99.90
46490;DHT22;32204;49.160;8.580;2023-11-19T03:27:25;11.30;99.90
46490;DHT22;32204;49.160;8.580;2023-11-19T03:29:50;11.30;99.90
46490;DHT22;32204;49.160;8.580;2023-11-19T03:32:16;11.40;99.90
46490;DHT22;32204;49.160;8.580;2023-11-19T03:34:41;11.30;99.90
46490;DHT22;32204;49.160;8.580;2023-11-19T03:37:07;11.40;99.90
46490;DHT22;32204;49.160;8.580;2023-11-19T03:39:32;11.40;99.90
46490;DHT22;32204;49.160;8.580;2023-11-19T03:41:58;11.40;99.90
46490;DHT22;32204;49.160;8.580;2023-11-19T03:44:24;11.40;99.90
46490;DHT22;32204;49.160;8.580;2023-11-19T03:46:51;11.40;99.90
46490;DHT22;32204;49.160;8.580;2023-11-19T03:49:17;11.40;99.90
46490;DHT22;32204;49.160;8.580;2023-11-19T03:51:43;11.40;99.90
46490;DHT22;32204;49.160;8.580;2023-11-19T03:54:08;11.40;99.90
46490;DHT22;32204;49.160;8.580;2023-11-19T03:56:34;11.40;99.90
46490;DHT22;32204;49.160;8.580;2023-11-19T03:58:59;11.50;99.90
46490;DHT22;32204;49.160;8.580;2023-11-19T04:01:25;11.50;99.90
46490;DHT22;32204;49.160;8.580;2023-11-19T04:03:50;11.50;99.90
46490;DHT22;32204;49.160;8.580;2023-11-19T04:06:16;11.50;99.90
46490;DHT22;32204;49.160;8.580;2023-11-19T04:08:42;11.50;99.90
46490;DHT22;32204;49.160;8.580;2023-11-19T04:11:07;11.50;99.90
46490;DHT22;32204;49.160;8.580;2023-11-19T04:13:34;11.60;99.90
46490;DHT22;32204;49.160;8.580;2023-11-19T04:16:00;11.60;99.90
46490;DHT22;32204;49.160;8.580;2023-11-19T04:18:26;11.60;99.90
46490;DHT22;32204;49.160;8.580;2023-11-19T04:20:52;11.60;99.90
46490;DHT22;32204;49.160;8.580;2023-11-19T04:23:18;11.60;99.90
46490;DHT22;32204;49.160;8.580;2023-11-19T04:25:43;11.60;99.90
46490;DHT22;32204;49.160;8.580;2023-11-19T04:28:09;11.60;99.90
46490;DHT22;32204;49.160;8.580;2023-11-19T04:30:35;11.60;99.90
46490;DHT22;32204;49.160;8.580;2023-11-19T04:33:00;11.60;99.90
46490;DHT22;32204;49.160;8.580;2023-11-19T04:35:26;11.60;99.90
46490;DHT22;32204;49.160;8.580;2023-11-19T04:37:52;11.60;99.90
46490;DHT22;32204;49.160;8.580;2023-11-19T04:40:18;11.70;99.90
46490;DHT22;32204;49.160;8.580;2023-11-19T04:42:44;11.70;99.90
46490;DHT22;32204;49.160;8.580;2023-11-19T04:45:10;11.70;99.90
46490;DHT22;32204;49.160;8.580;2023-11-19T04:47:36;11.70;99.90
46490;DHT22;32204;49.160;8.580;2023-11-19T04:50:02;11.70;99.90
46490;DHT22;32204;49.160;8.580;2023-11-19T04:52:29;11.70;99.90
46490;DHT22;32204;49.160;8.580;2023-11-19T04:54:54;11.70;99.90
46490;DHT22;32204;49.160;8.580;2023-11-19T04:57:20;11.70;99.90
46490;DHT22;32204;49.160;8.580;2023-11-19T04:59:45;11.80;99.90
46490;DHT22;32204;49.160;8.580;2023-11-19T05:02:11;11.70;99.90
46490;DHT22;32204;49.160;8.580;2023-11-19T05:04:37;11.80;99.90
46490;DHT22;32204;49.160;8.580;2023-11-19T05:07:03;11.80;99.90
46490;DHT22;32204;49.160;8.580;2023-11-19T05:09:31;11.80;99.90
46490;DHT22;32204;49.160;8.580;2023-11-19T05:11:56;11.80;99.90
46490;DHT22;32204;49.160;8.580;2023-11-19T05:14:22;11.80;99.90
46490;DHT22;32204;49.160;8.580;2023-11-19T05:16:49;11.80;99.90
46490;DHT22;32204;49.160;8.580;2023-11-19T05:19:15;11.80;99.90
46490;DHT22;32204;49.160;8.580;2023-11-19T05:21:44;11.80;99.90
46490;DHT22;32204;49.160;8.580;2023-11-19T05:24:09;11.90;99.90
46490;DHT22;32204;49.160;8.580;2023-11-19T05:26:35;11.90;99.90
46490;DHT22;32204;49.160;8.580;2023-11-19T05:29:00;11.90;99.90
46490;DHT22;32204;49.160;8.580;2023-11-19T05:31:26;11.90;99.90
46490;DHT22;32204;49.160;8.580;2023-11-19T05:33:52;11.90;99.90
46490;DHT22;32204;49.160;8.580;2023-11-19T05:36:17;12.00;99.90
46490;DHT22;32204;49.160;8.580;2023-11-19T05:38:43;12.00;99.90
46490;DHT22;32204;49.160;8.580;2023-11-19T05:41:10;12.00;99.90
46490;DHT22;32204;49.160;8.580;2023-11-19T05:43:35;12.00;99.90
46490;DHT22;32204;49.160;8.580;2023-11-19T05:46:01;12.10;99.90
46490;DHT22;32204;49.160;8.580;2023-11-19T05:48:27;12.10;99.90
46490;DHT22;32204;49.160;8.580;2023-11-19T05:50:53;12.10;99.90
46490;DHT22;32204;49.160;8.580;2023-11-19T05:53:19;12.10;99.90
46490;DHT22;32204;49.160;8.580;2023-11-19T05:55:44;12.20;99.90
46490;DHT22;32204;49.160;8.580;2023-11-19T05:58:14;12.20;99.90
46490;DHT22;32204;49.160;8.580;2023-11-19T06:00:40;12.20;99.90
46490;DHT22;32204;49.160;8.580;2023-11-19T06:03:09;12.30;99.90
46490;DHT22;32204;49.160;8.580;2023-11-19T06:05:34;12.30;99.90
46490;DHT22;32204;49.160;8.580;2023-11-19T06:08:00;12.30;99.90
46490;DHT22;32204;49.160;8.580;2023-11-19T06:10:26;12.30;99.90
46490;DHT22;32204;49.160;8.580;2023-11-19T06:12:59;12.30;99.90
46490;DHT22;32204;49.160;8.580;2023-11-19T06:15:26;12.40;99.90
46490;DHT22;32204;49.160;8.580;2023-11-19T06:17:53;12.40;99.90
46490;DHT22;32204;49.160;8.580;2023-11-19T06:20:18;12.40;99.90
46490;DHT22;32204;49.160;8.580;2023-11-19T06:22:45;12.40;99.90
46490;DHT22;32204;49.160;8.580;2023-11-19T06:25:11;12.50;99.90
46490;DHT22;32204;49.160;8.580;2023-11-19T06:27:42;12.50;99.90
46490;DHT22;32204;49.160;8.580;2023-11-19T06:30:08;12.50;99.90
46490;DHT22;32204;49.160;8.580;2023-11-19T06:32:34;12.50;99.90
46490;DHT22;32204;49.160;8.580;2023-11-19T06:34:59;12.50;99.90
46490;DHT22;32204;49.160;8.580;2023-11-19T06:37:25;12.50;99.90
46490;DHT22;32204;49.160;8.580;2023-11-19T06:39:52;12.50;99.90
46490;DHT22;32204;49.160;8.580;2023-11-19T06:42:18;12.60;99.90
46490;DHT22;32204;49.160;8.580;2023-11-19T06:44:43;12.60;99.90
46490;DHT22;32204;49.160;8.580;2023-11-19T06:47:09;12.60;99.90
46490;DHT22;32204;49.160;8.580;2023-11-19T06:49:35;12.60;99.90
46490;DHT22;32204;49.160;8.580;2023-11-19T06:52:00;12.70;99.90
46490;DHT22;32204;49.160;8.580;2023-11-19T06:54:26;12.70;99.90
46490;DHT22;32204;49.160;8.580;2023-11-19T06:56:52;12.70;99.90
46490;DHT22;32204;49.160;8.580;2023-11-19T06:59:17;12.70;99.90
46490;DHT22;32204;49.160;8.580;2023-11-19T07:01:43;12.80;99.90
46490;DHT22;32204;49.160;8.580;2023-11-19T07:04:11;12.70;99.90
46490;DHT22;32204;49.160;8.580;2023-11-19T07:06:38;12.70;99.90
46490;DHT22;32204;49.160;8.580;2023-11-19T07:09:06;12.70;99.90
46490;DHT22;32204;49.160;8.580;2023-11-19T07:11:39;12.80;99.90
46490;DHT22;32204;49.160;8.580;2023-11-19T07:14:05;12.80;99.90
46490;DHT22;32204;49.160;8.580;2023-11-19T07:16:32;12.80;99.90
46490;DHT22;32204;49.160;8.580;2023-11-19T07:19:00;12.80;99.90
46490;DHT22;32204;49.160;8.580;2023-11-19T07:21:26;12.80;99.90
46490;DHT22;32204;49.160;8.580;2023-11-19T07:23:54;12.80;99.90
46490;DHT22;32204;49.160;8.580;2023-11-19T07:26:19;12.80;99.90
46490;DHT22;32204;49.160;8.580;2023-11-19T07:28:45;12.70;99.90
46490;DHT22;32204;49.160;8.580;2023-11-19T07:31:11;12.80;99.90
46490;DHT22;32204;49.160;8.580;2023-11-19T07:33:39;12.70;99.90
46490;DHT22;32204;49.160;8.580;2023-11-19T07:36:05;12.70;99.90
46490;DHT22;32204;49.160;8.580;2023-11-19T07:38:31;12.60;99.90
46490;DHT22;32204;49.160;8.580;2023-11-19T07:40:56;12.60;99.90
46490;DHT22;32204;49.160;8.580;2023-11-19T07:43:22;12.60;99.90
46490;DHT22;32204;49.160;8.580;2023-11-19T07:45:47;12.60;99.90
46490;DHT22;32204;49.160;8.580;2023-11-19T07:48:13;12.60;99.90
46490;DHT22;32204;49.160;8.580;2023-11-19T07:50:39;12.60;99.90
46490;DHT22;32204;49.160;8.580;2023-11-19T07:53:07;12.60;99.90
46490;DHT22;32204;49.160;8.580;2023-11-19T07:55:33;12.60;99.90
46490;DHT22;32204;49.160;8.580;2023-11-19T07:57:58;12.60;99.90
46490;DHT22;32204;49.160;8.580;2023-11-19T08:00:24;12.70;99.90
46490;DHT22;32204;49.160;8.580;2023-11-19T08:02:50;12.70;99.90
46490;DHT22;32204;49.160;8.580;2023-11-19T08:05:15;12.80;99.90
46490;DHT22;32204;49.160;8.580;2023-11-19T08:07:41;12.80;99.90
46490;DHT22;32204;49.160;8.580;2023-11-19T08:10:07;12.90;99.90
46490;DHT22;32204;49.160;8.580;2023-11-19T08:12:35;12.90;99.90
46490;DHT22;32204;49.160;8.580;2023-11-19T08:15:02;12.90;99.90
46490;DHT22;32204;49.160;8.580;2023-11-19T08:17:28;12.90;99.90
46490;DHT22;32204;49.160;8.580;2023-11-19T08:19:53;12.90;99.90
46490;DHT22;32204;49.160;8.580;2023-11-19T08:22:19;13.00;99.90
46490;DHT22;32204;49.160;8.580;2023-11-19T08:24:45;13.00;99.90
46490;DHT22;32204;49.160;8.580;2023-11-19T08:27:10;13.10;99.90
46490;DHT22;32204;49.160;8.580;2023-11-19T08:29:36;13.10;99.90
46490;DHT22;32204;49.160;8.580;2023-11-19T08:32:01;13.00;99.90
46490;DHT22;32204;49.160;8.580;2023-11-19T08:34:29;13.10;99.90
46490;DHT22;32204;49.160;8.580;2023-11-19T08:36:55;13.10;99.90
46490;DHT22;32204;49.160;8.580;2023-11-19T08:39:21;13.20;99.90
46490;DHT22;32204;49.160;8.580;2023-11-19T08:41:47;13.30;99.90
46490;DHT22;32204;49.160;8.580;2023-11-19T08:44:13;13.30;99.90
46490;DHT22;32204;49.160;8.580;2023-11-19T08:46:45;13.30;99.90
46490;DHT22;32204;49.160;8.580;2023-11-19T08:49:11;13.30;99.90
46490;DHT22;32204;49.160;8.580;2023-11-19T08:51:36;13.30;99.90
46490;DHT22;32204;49.160;8.580;2023-11-19T08:54:02;13.40;99.90
46490;DHT22;32204;49.160;8.580;2023-11-19T08:56:28;13.40;99.90
46490;DHT22;32204;49.160;8.580;2023-11-19T08:58:58;13.50;99.90
46490;DHT22;32204;49.160;8.580;2023-11-19T09:01:23;13.50;99.90
46490;DHT22;32204;49.160;8.580;2023-11-19T09:03:50;13.60;99.90
46490;DHT22;32204;49.160;8.580;2023-11-19T09:06:15;13.70;99.90
46490;DHT22;32204;49.160;8.580;2023-11-19T09:08:42;13.80;99.90
46490;DHT22;32204;49.160;8.580;2023-11-19T09:11:08;13.80;99.90
46490;DHT22;32204;49.160;8.580;2023-11-19T09:13:35;13.80;99.90
46490;DHT22;32204;49.160;8.580;2023-11-19T09:16:00;13.90;99.90
46490;DHT22;32204;49.160;8.580;2023-11-19T09:18:29;14.00;99.90
46490;DHT22;32204;49.160;8.580;2023-11-19T09:20:54;14.00;99.90
46490;DHT22;32204;49.160;8.580;2023-11-19T09:23:20;14.10;99.90
46490;DHT22;32204;49.160;8.580;2023-11-19T09:25:46;14.20;99.90
46490;DHT22;32204;49.160;8.580;2023-11-19T09:28:11;14.20;99.90
46490;DHT22;32204;49.160;8.580;2023-11-19T09:30:38;14.20;99.90
46490;DHT22;32204;49.160;8.580;2023-11-19T09:33:04;14.20;99.90
46490;DHT22;32204;49.160;8.580;2023-11-19T09:35:29;14.10;99.90
46490;DHT22;32204;49.160;8.580;2023-11-19T09:37:55;14.10;99.90
46490;DHT22;32204;49.160;8.580;2023-11-19T09:40:20;14.20;99.90
46490;DHT22;32204;49.160;8.580;2023-11-19T09:42:47;14.20;99.90
46490;DHT22;32204;49.160;8.580;2023-11-19T09:45:15;14.20;99.90
46490;DHT22;32204;49.160;8.580;2023-11-19T09:47:45;14.20;99.90
46490;DHT22;32204;49.160;8.580;2023-11-19T09:50:18;14.30;99.90
46490;DHT22;32204;49.160;8.580;2023-11-19T09:52:44;14.30;99.90
46490;DHT22;32204;49.160;8.580;2023-11-19T09:55:10;14.30;99.90
46490;DHT22;32204;49.160;8.580;2023-11-19T09:57:38;14.30;99.90
46490;DHT22;32204;49.160;8.580;2023-11-19T10:00:05;14.30;99.90
46490;DHT22;32204;49.160;8.580;2023-11-19T10:02:33;14.30;99.90
46490;DHT22;32204;49.160;8.580;2023-11-19T10:05:04;14.30;99.90
46490;DHT22;32204;49.160;8.580;2023-11-19T10:07:31;14.30;99.90
46490;DHT22;32204;49.160;8.580;2023-11-19T10:10:01;14.40;99.90
46490;DHT22;32204;49.160;8.580;2023-11-19T10:12:28;14.40;99.90
46490;DHT22;32204;49.160;8.580;2023-11-19T10:14:56;14.30;99.90
46490;DHT22;32204;49.160;8.580;2023-11-19T10:17:36;14.30;99.90
46490;DHT22;32204;49.160;8.580;2023-11-19T10:20:01;14.50;99.90
46490;DHT22;32204;49.160;8.580;2023-11-19T10:22:27;14.50;99.90
46490;DHT22;32204;49.160;8.580;2023-11-19T10:24:53;14.60;99.90
46490;DHT22;32204;49.160;8.580;2023-11-19T10:27:19;14.60;99.90
46490;DHT22;32204;49.160;8.580;2023-11-19T10:29:48;14.70;99.90
46490;DHT22;32204;49.160;8.580;2023-11-19T10:32:14;14.70;99.90
46490;DHT22;32204;49.160;8.580;2023-11-19T10:34:42;14.70;99.90
46490;DHT22;32204;49.160;8.580;2023-11-19T10:37:09;14.70;99.90
46490;DHT22;32204;49.160;8.580;2023-11-19T10:39:54;14.90;99.90
46490;DHT22;32204;49.160;8.580;2023-11-19T10:42:21;15.10;99.90
46490;DHT22;32204;49.160;8.580;2023-11-19T10:44:46;15.30;99.90
46490;DHT22;32204;49.160;8.580;2023-11-19T10:47:13;15.50;99.90
46490;DHT22;32204;49.160;8.580;2023-11-19T10:49:40;15.40;99.90
46490;DHT22;32204;49.160;8.580;2023-11-19T10:52:08;15.40;99.90
46490;DHT22;32204;49.160;8.580;2023-11-19T10:54:34;15.40;99.90
46490;DHT22;32204;49.160;8.580;2023-11-19T10:57:02;15.40;99.90
46490;DHT22;32204;49.160;8.580;2023-11-19T10:59:30;15.40;99.90
46490;DHT22;32204;49.160;8.580;2023-11-19T11:01:57;15.50;99.90
46490;DHT22;32204;49.160;8.580;2023-11-19T11:04:25;15.50;99.90
46490;DHT22;32204;49.160;8.580;2023-11-19T11:06:58;15.50;99.90
46490;DHT22;32204;49.160;8.580;2023-11-19T11:09:26;15.60;99.90
46490;DHT22;32204;49.160;8.580;2023-11-19T11:11:52;15.50;99.90
46490;DHT22;32204;49.160;8.580;2023-11-19T11:14:20;15.50;99.90
46490;DHT22;32204;49.160;8.580;2023-11-19T11:16:46;15.50;99.90
46490;DHT22;32204;49.160;8.580;2023-11-19T11:19:15;15.60;99.90
46490;DHT22;32204;49.160;8.580;2023-11-19T11:21:45;15.70;99.90
46490;DHT22;32204;49.160;8.580;2023-11-19T11:24:32;15.70;99.90
46490;DHT22;32204;49.160;8.580;2023-11-19T11:27:17;15.80;99.90
46490;DHT22;32204;49.160;8.580;2023-11-19T11:35:08;16.10;1.00
46490;DHT22;32204;49.160;8.580;2023-11-19T11:37:42;16.20;99.90
46490;DHT22;32204;49.160;8.580;2023-11-19T11:40:14;16.30;1.00
46490;DHT22;32204;49.160;8.580;2023-11-19T11:42:41;16.30;1.00
46490;DHT22;32204;49.160;8.580;2023-11-19T11:45:11;16.30;1.00
46490;DHT22;32204;49.160;8.580;2023-11-19T11:50:13;16.30;1.00
46490;DHT22;32204;49.160;8.580;2023-11-19T11:57:49;16.20;1.00
46490;DHT22;32204;49.160;8.580;2023-11-19T12:00:22;16.30;99.90
46490;DHT22;32204;49.160;8.580;2023-11-19T12:02:48;16.40;99.90
46490;DHT22;32204;49.160;8.580;2023-11-19T12:05:14;16.40;99.90
46490;DHT22;32204;49.160;8.580;2023-11-19T12:07:40;16.40;99.90
46490;DHT22;32204;49.160;8.580;2023-11-19T12:10:07;16.50;99.90
46490;DHT22;32204;49.160;8.580;2023-11-19T12:12:33;16.50;1.00
46490;DHT22;32204;49.160;8.580;2023-11-19T12:15:08;16.60;1.00
46490;DHT22;32204;49.160;8.580;2023-11-19T12:17:46;16.50;99.90
46490;DHT22;32204;49.160;8.580;2023-11-19T12:20:15;16.40;76.10
46490;DHT22;32204;49.160;8.580;2023-11-19T12:22:43;16.40;1.00
46490;DHT22;32204;49.160;8.580;2023-11-19T12:25:10;16.40;1.00
46490;DHT22;32204;49.160;8.580;2023-11-19T12:27:44;16.40;99.90
46490;DHT22;32204;49.160;8.580;2023-11-19T12:30:10;16.50;1.00
46490;DHT22;32204;49.160;8.580;2023-11-19T12:32:43;16.60;99.90
46490;DHT22;32204;49.160;8.580;2023-11-19T12:35:11;16.70;99.90
46490;DHT22;32204;49.160;8.580;2023-11-19T12:37:48;16.50;1.00
46490;DHT22;32204;49.160;8.580;2023-11-19T12:40:15;16.40;99.90
46490;DHT22;32204;49.160;8.580;2023-11-19T12:42:43;16.20;1.00
46490;DHT22;32204;49.160;8.580;2023-11-19T12:45:08;16.10;11.00
46490;DHT22;32204;49.160;8.580;2023-11-19T12:47:36;16.10;36.20
46490;DHT22;32204;49.160;8.580;2023-11-19T12:50:02;16.10;99.90
46490;DHT22;32204;49.160;8.580;2023-11-19T12:52:29;16.10;99.90
46490;DHT22;32204;49.160;8.580;2023-11-19T12:54:55;16.00;99.90
46490;DHT22;32204;49.160;8.580;2023-11-19T12:57:39;15.90;99.90
46490;DHT22;32204;49.160;8.580;2023-11-19T13:00:05;15.80;99.90
46490;DHT22;32204;49.160;8.580;2023-11-19T13:02:52;15.80;1.00
46490;DHT22;32204;49.160;8.580;2023-11-19T13:05:28;15.70;1.00
46490;DHT22;32204;49.160;8.580;2023-11-19T13:08:06;15.60;99.90
46490;DHT22;32204;49.160;8.580;2023-11-19T13:10:33;15.50;99.90
46490;DHT22;32204;49.160;8.580;2023-11-19T13:13:08;15.50;1.00
46490;DHT22;32204;49.160;8.580;2023-11-19T13:15:35;15.40;1.00
46490;DHT22;32204;49.160;8.580;2023-11-19T13:18:02;15.50;40.90
46490;DHT22;32204;49.160;8.580;2023-11-19T13:20:28;15.50;99.90
46490;DHT22;32204;49.160;8.580;2023-11-19T13:22:57;15.50;1.00
46490;DHT22;32204;49.160;8.580;2023-11-19T13:25:23;15.50;99.90
46490;DHT22;32204;49.160;8.580;2023-11-19T13:27:48;15.50;99.90
46490;DHT22;32204;49.160;8.580;2023-11-19T13:30:14;15.50;99.90
46490;DHT22;32204;49.160;8.580;2023-11-19T13:32:40;15.60;99.90
46490;DHT22;32204;49.160;8.580;2023-11-19T13:35:06;15.60;99.90
46490;DHT22;32204;49.160;8.580;2023-11-19T13:37:34;15.60;99.90
46490;DHT22;32204;49.160;8.580;2023-11-19T13:40:00;15.60;1.00
46490;DHT22;32204;49.160;8.580;2023-11-19T13:42:25;15.50;1.00
46490;DHT22;32204;49.160;8.580;2023-11-19T13:44:52;15.50;99.90
46490;DHT22;32204;49.160;8.580;2023-11-19T13:47:18;15.50;99.90
46490;DHT22;32204;49.160;8.580;2023-11-19T13:49:44;15.40;99.90
46490;DHT22;32204;49.160;8.580;2023-11-19T13:52:10;15.40;99.90
46490;DHT22;32204;49.160;8.580;2023-11-19T13:54:37;15.40;99.90
46490;DHT22;32204;49.160;8.580;2023-11-19T13:57:03;15.40;99.90
46490;DHT22;32204;49.160;8.580;2023-11-19T13:59:30;15.40;99.90
46490;DHT22;32204;49.160;8.580;2023-11-19T14:01:57;15.30;99.90
46490;DHT22;32204;49.160;8.580;2023-11-19T14:04:23;15.30;99.90
46490;DHT22;32204;49.160;8.580;2023-11-19T14:06:49;15.20;99.90
46490;DHT22;32204;49.160;8.580;2023-11-19T14:09:15;15.20;99.90
46490;DHT22;32204;49.160;8.580;2023-11-19T14:11:40;15.20;99.90
46490;DHT22;32204;49.160;8.580;2023-11-19T14:14:07;15.20;1.00
46490;DHT22;32204;49.160;8.580;2023-11-19T14:16:33;15.10;1.00
46490;DHT22;32204;49.160;8.580;2023-11-19T14:18:59;15.10;1.00
46490;DHT22;32204;49.160;8.580;2023-11-19T14:21:25;15.10;1.00
46490;DHT22;32204;49.160;8.580;2023-11-19T14:23:52;15.10;1.00
46490;DHT22;32204;49.160;8.580;2023-11-19T14:26:18;15.20;1.00
46490;DHT22;32204;49.160;8.580;2023-11-19T14:28:44;15.20;1.00
46490;DHT22;32204;49.160;8.580;2023-11-19T14:31:09;15.30;1.00
46490;DHT22;32204;49.160;8.580;2023-11-19T14:33:35;15.50;99.90
46490;DHT22;32204;49.160;8.580;2023-11-19T14:36:01;15.60;99.90
46490;DHT22;32204;49.160;8.580;2023-11-19T14:38:27;15.70;31.10
46490;DHT22;32204;49.160;8.580;2023-11-19T14:40:52;15.80;1.00
46490;DHT22;32204;49.160;8.580;2023-11-19T14:43:18;15.80;1.00
46490;DHT22;32204;49.160;8.580;2023-11-19T14:45:44;15.90;1.00
46490;DHT22;32204;49.160;8.580;2023-11-19T14:48:09;16.00;1.00
46490;DHT22;32204;49.160;8.580;2023-11-19T14:50:35;16.00;99.90
46490;DHT22;32204;49.160;8.580;2023-11-19T14:53:01;16.00;99.90
46490;DHT22;32204;49.160;8.580;2023-11-19T14:55:27;15.80;1.00
46490;DHT22;32204;49.160;8.580;2023-11-19T14:57:53;15.70;7.10
46490;DHT22;32204;49.160;8.580;2023-11-19T15:00:19;15.60;96.60
46490;DHT22;32204;49.160;8.580;2023-11-19T15:02:44;15.50;99.90
46490;DHT22;32204;49.160;8.580;2023-11-19T15:05:10;15.60;99.90
46490;DHT22;32204;49.160;8.580;2023-11-19T15:07:39;15.50;99.90
46490;DHT22;32204;49.160;8.580;2023-11-19T15:10:06;15.40;99.90
46490;DHT22;32204;49.160;8.580;2023-11-19T15:12:39;15.40;99.90
46490;DHT22;32204;49.160;8.580;2023-11-19T15:15:09;15.30;99.90
46490;DHT22;32204;49.160;8.580;2023-11-19T15:17:40;15.30;1.00
46490;DHT22;32204;49.160;8.580;2023-11-19T15:20:07;15.20;1.00
46490;DHT22;32204;49.160;8.580;2023-11-19T15:22:32;15.20;1.00
46490;DHT22;32204;49.160;8.580;2023-11-19T15:24:58;15.20;96.30
46490;DHT22;32204;49.160;8.580;2023-11-19T15:27:24;15.10;99.90
46490;DHT22;32204;49.160;8.580;2023-11-19T15:29:49;15.10;99.90
46490;DHT22;32204;49.160;8.580;2023-11-19T15:32:15;15.00;1.00
46490;DHT22;32204;49.160;8.580;2023-11-19T15:34:40;15.00;1.00
46490;DHT22;32204;49.160;8.580;2023-11-19T15:37:07;15.00;1.00
46490;DHT22;32204;49.160;8.580;2023-11-19T15:39:33;15.00;73.80
46490;DHT22;32204;49.160;8.580;2023-11-19T15:42:01;15.00;99.90
46490;DHT22;32204;49.160;8.580;2023-11-19T15:44:27;14.90;99.90